sensor_id;sensor_type;location;lat;lon;timestamp;P1;durP1;ratioP1;P2;durP2;ratioP2
50563;SDS011;36514;52.590;21.448;2023-08-20T07:25:09;1818.87;;;909.75;;
50563;SDS011;36514;52.590;21.448;2023-08-20T07:35:15;1818.86;;;909.74;;
50563;SDS011;36514;52.590;21.448;2023-08-20T07:45:19;1818.95;;;909.82;;
50563;SDS011;36514;52.590;21.448;2023-08-20T07:55:22;1818.95;;;909.83;;
50563;SDS011;36514;52.590;21.448;2023-08-20T08:05:23;1818.91;;;909.78;;
50563;SDS011;36514;52.590;21.448;2023-08-20T08:15:30;1818.89;;;909.76;;
50563;SDS011;36514;52.590;21.448;2023-08-20T08:25:30;1818.91;;;909.78;;
50563;SDS011;36514;52.590;21.448;2023-08-20T08:35:33;1818.93;;;909.80;;
50563;SDS011;36514;52.590;21.448;2023-08-20T08:45:33;1818.90;;;909.77;;
50563;SDS011;36514;52.590;21.448;2023-08-20T08:55:47;1818.91;;;909.78;;
50563;SDS011;36514;52.590;21.448;2023-08-20T09:05:48;1818.74;;;909.62;;
50563;SDS011;36514;52.590;21.448;2023-08-20T09:15:54;1818.93;;;909.80;;
50563;SDS011;36514;52.590;21.448;2023-08-20T09:25:54;1818.82;;;909.69;;
50563;SDS011;36514;52.590;21.448;2023-08-20T09:35:52;1818.96;;;909.84;;
50563;SDS011;36514;52.590;21.448;2023-08-20T09:45:55;1818.96;;;909.83;;
50563;SDS011;36514;52.590;21.448;2023-08-20T09:56:09;1819.01;;;909.87;;
50563;SDS011;36514;52.590;21.448;2023-08-20T10:06:09;1819.01;;;909.87;;
50563;SDS011;36514;52.590;21.448;2023-08-20T10:26:38;1801.02;;;900.97;;
50563;SDS011;36514;52.590;21.448;2023-08-20T10:36:43;1800.99;;;900.94;;
50563;SDS011;36514;52.590;21.448;2023-08-20T10:46:51;1800.96;;;900.91;;
50563;SDS011;36514;52.590;21.448;2023-08-20T10:56:57;1801.05;;;901.00;;
50563;SDS011;36514;52.590;21.448;2023-08-20T11:06:55;1819.02;;;909.88;;
50563;SDS011;36514;52.590;21.448;2023-08-20T11:16:58;1819.03;;;909.89;;
50563;SDS011;36514;52.590;21.448;2023-08-20T11:26:46;1818.95;;;909.83;;
50563;SDS011;36514;52.590;21.448;2023-08-20T11:36:54;1818.98;;;909.85;;
50563;SDS011;36514;52.590;21.448;2023-08-20T11:46:56;1800.85;;;900.81;;
50563;SDS011;36514;52.590;21.448;2023-08-20T11:57:01;1800.96;;;900.91;;
50563;SDS011;36514;52.590;21.448;2023-08-20T12:07:08;1800.89;;;900.84;;
50563;SDS011;36514;52.590;21.448;2023-08-20T12:17:06;1800.92;;;900.87;;
50563;SDS011;36514;52.590;21.448;2023-08-20T12:27:08;1800.89;;;900.84;;
50563;SDS011;36514;52.590;21.448;2023-08-20T12:37:06;1800.89;;;900.84;;
50563;SDS011;36514;52.590;21.448;2023-08-20T12:47:04;1800.92;;;900.87;;
50563;SDS011;36514;52.590;21.448;2023-08-20T12:57:02;1818.93;;;909.80;;
50563;SDS011;36514;52.590;21.448;2023-08-20T13:06:54;1818.92;;;909.79;;
50563;SDS011;36514;52.590;21.448;2023-08-20T13:16:37;1309.12;;;647.99;;
50563;SDS011;36514;52.590;21.448;2023-08-20T13:26:51;1818.93;;;909.80;;
50563;SDS011;36514;52.590;21.448;2023-08-20T13:36:58;1818.94;;;909.81;;
50563;SDS011;36514;52.590;21.448;2023-08-20T13:46:47;1818.99;;;909.85;;
50563;SDS011;36514;52.590;21.448;2023-08-20T13:56:34;1818.93;;;909.80;;
50563;SDS011;36514;52.590;21.448;2023-08-20T14:06:29;1031.90;;;554.29;;
50563;SDS011;36514;52.590;21.448;2023-08-20T14:16:46;1819.00;;;909.86;;
50563;SDS011;36514;52.590;21.448;2023-08-20T14:26:38;1819.01;;;909.87;;
50563;SDS011;36514;52.590;21.448;2023-08-20T14:36:40;1818.94;;;909.81;;
50563;SDS011;36514;52.590;21.448;2023-08-20T14:46:40;1818.98;;;909.85;;
50563;SDS011;36514;52.590;21.448;2023-08-20T14:56:43;1818.88;;;909.75;;
50563;SDS011;36514;52.590;21.448;2023-08-20T15:06:45;1819.02;;;909.88;;
50563;SDS011;36514;52.590;21.448;2023-08-20T15:16:49;1818.95;;;909.83;;
50563;SDS011;36514;52.590;21.448;2023-08-20T15:26:54;1818.90;;;909.77;;
50563;SDS011;36514;52.590;21.448;2023-08-20T15:36:55;1818.88;;;909.75;;
50563;SDS011;36514;52.590;21.448;2023-08-20T15:46:47;1819.00;;;909.86;;
50563;SDS011;36514;52.590;21.448;2023-08-20T15:56:44;1203.17;;;860.27;;
50563;SDS011;36514;52.590;21.448;2023-08-20T16:06:50;1275.35;;;877.24;;
50563;SDS011;36514;52.590;21.448;2023-08-20T16:17:02;1162.95;;;805.03;;
50563;SDS011;36514;52.590;21.448;2023-08-20T16:27:05;1231.75;;;757.60;;
50563;SDS011;36514;52.590;21.448;2023-08-20T16:37:04;1244.76;;;834.60;;
50563;SDS011;36514;52.590;21.448;2023-08-20T16:47:03;1584.74;;;777.04;;
50563;SDS011;36514;52.590;21.448;2023-08-20T16:57:04;1629.75;;;766.07;;
50563;SDS011;36514;52.590;21.448;2023-08-20T17:07:06;1257.20;;;828.95;;
50563;SDS011;36514;52.590;21.448;2023-08-20T17:17:09;1121.22;;;857.08;;
50563;SDS011;36514;52.590;21.448;2023-08-20T17:27:13;1032.45;;;858.79;;
50563;SDS011;36514;52.590;21.448;2023-08-20T17:37:16;1074.38;;;865.35;;
50563;SDS011;36514;52.590;21.448;2023-08-20T17:47:18;1028.85;;;837.95;;
50563;SDS011;36514;52.590;21.448;2023-08-20T17:57:25;1051.68;;;864.01;;
50563;SDS011;36514;52.590;21.448;2023-08-20T18:07:31;1119.49;;;896.23;;
50563;SDS011;36514;52.590;21.448;2023-08-20T18:17:28;927.25;;;835.75;;
50563;SDS011;36514;52.590;21.448;2023-08-20T18:27:24;1018.90;;;882.64;;
50563;SDS011;36514;52.590;21.448;2023-08-20T18:37:20;953.82;;;843.85;;
50563;SDS011;36514;52.590;21.448;2023-08-20T18:47:19;1172.47;;;856.05;;
50563;SDS011;36514;52.590;21.448;2023-08-20T18:57:16;1459.39;;;887.25;;
